sensor_id;sensor_type;location;lat;lon;timestamp;P1;durP1;ratioP1;P2;durP2;ratioP2
65831;SDS011;52593;42.648;23.332;2023-04-16T00:02:17;9.55;;;3.03;;
65831;SDS011;52593;42.648;23.332;2023-04-16T00:04:43;9.80;;;2.30;;
65831;SDS011;52593;42.648;23.332;2023-04-16T00:07:08;6.97;;;2.23;;
65831;SDS011;52593;42.648;23.332;2023-04-16T00:09:34;8.13;;;2.85;;
65831;SDS011;52593;42.648;23.332;2023-04-16T00:11:59;9.10;;;3.13;;
65831;SDS011;52593;42.648;23.332;2023-04-16T00:14:25;7.40;;;2.80;;
65831;SDS011;52593;42.648;23.332;2023-04-16T00:16:50;7.17;;;2.40;;
65831;SDS011;52593;42.648;23.332;2023-04-16T00:19:15;5.45;;;2.00;;
65831;SDS011;52593;42.648;23.332;2023-04-16T00:21:41;6.93;;;2.40;;
65831;SDS011;52593;42.648;23.332;2023-04-16T00:24:06;6.23;;;1.90;;
65831;SDS011;52593;42.648;23.332;2023-04-16T00:26:32;6.47;;;2.10;;
65831;SDS011;52593;42.648;23.332;2023-04-16T00:28:57;5.63;;;1.67;;
65831;SDS011;52593;42.648;23.332;2023-04-16T00:31:26;7.07;;;2.23;;
65831;SDS011;52593;42.648;23.332;2023-04-16T00:33:52;7.50;;;2.65;;
65831;SDS011;52593;42.648;23.332;2023-04-16T00:36:18;8.33;;;2.40;;
65831;SDS011;52593;42.648;23.332;2023-04-16T00:38:43;5.47;;;1.80;;
65831;SDS011;52593;42.648;23.332;2023-04-16T00:41:09;5.40;;;2.00;;
65831;SDS011;52593;42.648;23.332;2023-04-16T00:43:34;7.07;;;2.20;;
65831;SDS011;52593;42.648;23.332;2023-04-16T00:46:00;7.33;;;2.50;;
65831;SDS011;52593;42.648;23.332;2023-04-16T00:48:28;6.43;;;2.10;;
65831;SDS011;52593;42.648;23.332;2023-04-16T00:50:56;5.80;;;1.93;;
65831;SDS011;52593;42.648;23.332;2023-04-16T00:53:22;4.93;;;1.98;;
65831;SDS011;52593;42.648;23.332;2023-04-16T00:55:48;5.45;;;1.73;;
65831;SDS011;52593;42.648;23.332;2023-04-16T00:58:14;6.30;;;1.80;;
65831;SDS011;52593;42.648;23.332;2023-04-16T01:00:40;5.13;;;1.50;;
65831;SDS011;52593;42.648;23.332;2023-04-16T01:03:05;6.13;;;1.98;;
65831;SDS011;52593;42.648;23.332;2023-04-16T01:05:31;6.30;;;1.80;;
65831;SDS011;52593;42.648;23.332;2023-04-16T01:07:59;7.07;;;2.00;;
65831;SDS011;52593;42.648;23.332;2023-04-16T01:10:25;8.20;;;2.25;;
65831;SDS011;52593;42.648;23.332;2023-04-16T01:12:50;8.03;;;2.53;;
65831;SDS011;52593;42.648;23.332;2023-04-16T01:15:16;7.33;;;2.60;;
65831;SDS011;52593;42.648;23.332;2023-04-16T01:17:43;9.23;;;2.80;;
65831;SDS011;52593;42.648;23.332;2023-04-16T01:20:10;8.55;;;2.97;;
65831;SDS011;52593;42.648;23.332;2023-04-16T01:22:35;7.07;;;2.80;;
65831;SDS011;52593;42.648;23.332;2023-04-16T01:25:01;8.57;;;2.50;;
65831;SDS011;52593;42.648;23.332;2023-04-16T01:27:26;9.63;;;2.90;;
65831;SDS011;52593;42.648;23.332;2023-04-16T01:29:51;9.00;;;2.78;;
65831;SDS011;52593;42.648;23.332;2023-04-16T01:32:17;7.47;;;2.80;;
65831;SDS011;52593;42.648;23.332;2023-04-16T01:34:42;8.73;;;2.53;;
65831;SDS011;52593;42.648;23.332;2023-04-16T01:37:07;7.87;;;2.60;;
65831;SDS011;52593;42.648;23.332;2023-04-16T01:39:33;7.60;;;2.83;;
65831;SDS011;52593;42.648;23.332;2023-04-16T01:41:58;6.63;;;2.60;;
65831;SDS011;52593;42.648;23.332;2023-04-16T01:44:23;8.97;;;2.60;;
65831;SDS011;52593;42.648;23.332;2023-04-16T01:46:49;6.97;;;2.57;;
65831;SDS011;52593;42.648;23.332;2023-04-16T01:49:15;9.88;;;3.00;;
65831;SDS011;52593;42.648;23.332;2023-04-16T01:51:40;8.97;;;2.87;;
65831;SDS011;52593;42.648;23.332;2023-04-16T01:54:06;9.93;;;3.50;;
65831;SDS011;52593;42.648;23.332;2023-04-16T01:56:31;12.15;;;4.50;;
65831;SDS011;52593;42.648;23.332;2023-04-16T01:58:57;12.50;;;5.30;;
65831;SDS011;52593;42.648;23.332;2023-04-16T02:01:22;11.33;;;4.13;;
65831;SDS011;52593;42.648;23.332;2023-04-16T02:03:48;13.02;;;4.63;;
65831;SDS011;52593;42.648;23.332;2023-04-16T02:06:15;10.63;;;3.93;;
65831;SDS011;52593;42.648;23.332;2023-04-16T02:08:40;12.20;;;4.60;;
65831;SDS011;52593;42.648;23.332;2023-04-16T02:11:06;9.90;;;4.10;;
65831;SDS011;52593;42.648;23.332;2023-04-16T02:13:32;11.40;;;3.78;;
65831;SDS011;52593;42.648;23.332;2023-04-16T02:15:57;8.03;;;3.43;;
65831;SDS011;52593;42.648;23.332;2023-04-16T02:18:23;8.17;;;3.30;;
65831;SDS011;52593;42.648;23.332;2023-04-16T02:20:48;8.43;;;3.30;;
65831;SDS011;52593;42.648;23.332;2023-04-16T02:23:14;9.95;;;3.38;;
65831;SDS011;52593;42.648;23.332;2023-04-16T02:25:40;8.03;;;3.30;;
65831;SDS011;52593;42.648;23.332;2023-04-16T02:28:10;7.78;;;2.90;;
65831;SDS011;52593;42.648;23.332;2023-04-16T02:30:37;8.10;;;3.13;;
65831;SDS011;52593;42.648;23.332;2023-04-16T02:33:04;9.13;;;2.97;;
65831;SDS011;52593;42.648;23.332;2023-04-16T02:35:31;8.87;;;2.93;;
65831;SDS011;52593;42.648;23.332;2023-04-16T02:37:57;8.38;;;2.67;;
65831;SDS011;52593;42.648;23.332;2023-04-16T02:40:23;6.55;;;2.42;;
65831;SDS011;52593;42.648;23.332;2023-04-16T02:42:49;6.57;;;1.93;;
65831;SDS011;52593;42.648;23.332;2023-04-16T02:45:14;6.07;;;1.90;;
65831;SDS011;52593;42.648;23.332;2023-04-16T02:47:40;5.40;;;1.70;;
65831;SDS011;52593;42.648;23.332;2023-04-16T02:50:05;6.23;;;1.60;;
65831;SDS011;52593;42.648;23.332;2023-04-16T02:52:31;6.15;;;1.60;;
65831;SDS011;52593;42.648;23.332;2023-04-16T02:54:57;5.37;;;1.60;;
65831;SDS011;52593;42.648;23.332;2023-04-16T02:57:23;5.00;;;1.73;;
65831;SDS011;52593;42.648;23.332;2023-04-16T02:59:48;5.07;;;1.33;;
65831;SDS011;52593;42.648;23.332;2023-04-16T03:02:14;5.90;;;1.50;;
65831;SDS011;52593;42.648;23.332;2023-04-16T03:04:40;4.67;;;1.70;;
65831;SDS011;52593;42.648;23.332;2023-04-16T03:07:05;4.68;;;1.40;;
65831;SDS011;52593;42.648;23.332;2023-04-16T03:09:32;4.43;;;1.40;;
65831;SDS011;52593;42.648;23.332;2023-04-16T03:11:58;5.18;;;1.45;;
65831;SDS011;52593;42.648;23.332;2023-04-16T03:14:23;5.60;;;1.60;;
65831;SDS011;52593;42.648;23.332;2023-04-16T03:16:48;4.57;;;1.40;;
65831;SDS011;52593;42.648;23.332;2023-04-16T03:19:14;7.17;;;1.90;;
65831;SDS011;52593;42.648;23.332;2023-04-16T03:21:39;5.70;;;1.73;;
65831;SDS011;52593;42.648;23.332;2023-04-16T03:24:05;6.22;;;1.55;;
65831;SDS011;52593;42.648;23.332;2023-04-16T03:26:30;6.97;;;1.77;;
65831;SDS011;52593;42.648;23.332;2023-04-16T03:28:55;6.30;;;1.63;;
65831;SDS011;52593;42.648;23.332;2023-04-16T03:31:22;6.93;;;1.73;;
65831;SDS011;52593;42.648;23.332;2023-04-16T03:33:48;7.45;;;1.70;;
65831;SDS011;52593;42.648;23.332;2023-04-16T03:36:13;5.33;;;1.60;;
65831;SDS011;52593;42.648;23.332;2023-04-16T03:38:39;6.33;;;1.83;;
65831;SDS011;52593;42.648;23.332;2023-04-16T03:41:04;8.32;;;2.38;;
65831;SDS011;52593;42.648;23.332;2023-04-16T03:43:29;6.07;;;2.10;;
65831;SDS011;52593;42.648;23.332;2023-04-16T03:45:55;8.60;;;2.13;;
65831;SDS011;52593;42.648;23.332;2023-04-16T03:48:21;7.65;;;2.08;;
65831;SDS011;52593;42.648;23.332;2023-04-16T03:50:46;5.67;;;2.00;;
65831;SDS011;52593;42.648;23.332;2023-04-16T03:53:12;5.95;;;1.60;;
65831;SDS011;52593;42.648;23.332;2023-04-16T03:55:38;5.87;;;2.13;;
65831;SDS011;52593;42.648;23.332;2023-04-16T03:58:03;6.72;;;2.40;;
65831;SDS011;52593;42.648;23.332;2023-04-16T04:00:29;7.67;;;2.50;;
65831;SDS011;52593;42.648;23.332;2023-04-16T04:02:55;8.07;;;3.00;;
65831;SDS011;52593;42.648;23.332;2023-04-16T04:05:20;8.90;;;3.07;;
65831;SDS011;52593;42.648;23.332;2023-04-16T04:07:46;9.63;;;3.13;;
65831;SDS011;52593;42.648;23.332;2023-04-16T04:10:12;8.75;;;2.80;;
65831;SDS011;52593;42.648;23.332;2023-04-16T04:12:37;10.13;;;3.00;;
65831;SDS011;52593;42.648;23.332;2023-04-16T04:15:02;8.80;;;2.90;;
65831;SDS011;52593;42.648;23.332;2023-04-16T04:17:28;9.43;;;2.93;;
65831;SDS011;52593;42.648;23.332;2023-04-16T04:19:53;7.40;;;2.50;;
65831;SDS011;52593;42.648;23.332;2023-04-16T04:22:19;6.97;;;2.80;;
65831;SDS011;52593;42.648;23.332;2023-04-16T04:24:44;9.17;;;3.00;;
65831;SDS011;52593;42.648;23.332;2023-04-16T04:27:09;7.63;;;2.70;;
65831;SDS011;52593;42.648;23.332;2023-04-16T04:29:35;10.50;;;2.87;;
65831;SDS011;52593;42.648;23.332;2023-04-16T04:32:00;7.78;;;2.90;;
65831;SDS011;52593;42.648;23.332;2023-04-16T04:34:25;7.93;;;2.93;;
65831;SDS011;52593;42.648;23.332;2023-04-16T04:36:51;9.97;;;2.77;;
65831;SDS011;52593;42.648;23.332;2023-04-16T04:39:16;7.53;;;3.10;;
65831;SDS011;52593;42.648;23.332;2023-04-16T04:41:42;9.07;;;2.70;;
65831;SDS011;52593;42.648;23.332;2023-04-16T04:44:07;7.18;;;2.80;;
65831;SDS011;52593;42.648;23.332;2023-04-16T04:46:32;11.10;;;3.17;;
65831;SDS011;52593;42.648;23.332;2023-04-16T04:48:58;8.13;;;3.13;;
65831;SDS011;52593;42.648;23.332;2023-04-16T04:51:23;9.57;;;3.07;;
65831;SDS011;52593;42.648;23.332;2023-04-16T04:53:48;8.57;;;3.23;;
65831;SDS011;52593;42.648;23.332;2023-04-16T04:56:14;8.52;;;3.08;;
65831;SDS011;52593;42.648;23.332;2023-04-16T04:58:40;9.53;;;3.00;;
65831;SDS011;52593;42.648;23.332;2023-04-16T05:01:05;10.87;;;3.00;;
65831;SDS011;52593;42.648;23.332;2023-04-16T05:03:31;10.43;;;3.25;;
65831;SDS011;52593;42.648;23.332;2023-04-16T05:05:56;10.97;;;2.70;;
65831;SDS011;52593;42.648;23.332;2023-04-16T05:08:21;8.07;;;3.13;;
65831;SDS011;52593;42.648;23.332;2023-04-16T05:10:47;9.87;;;2.97;;
65831;SDS011;52593;42.648;23.332;2023-04-16T05:13:12;10.07;;;3.13;;
65831;SDS011;52593;42.648;23.332;2023-04-16T05:15:37;7.32;;;2.70;;
65831;SDS011;52593;42.648;23.332;2023-04-16T05:18:03;7.27;;;2.70;;
65831;SDS011;52593;42.648;23.332;2023-04-16T05:20:28;7.90;;;2.73;;
65831;SDS011;52593;42.648;23.332;2023-04-16T05:22:54;7.20;;;2.67;;
65831;SDS011;52593;42.648;23.332;2023-04-16T05:25:19;8.27;;;3.00;;
65831;SDS011;52593;42.648;23.332;2023-04-16T05:27:45;7.37;;;2.87;;
65831;SDS011;52593;42.648;23.332;2023-04-16T05:30:10;9.03;;;3.20;;
65831;SDS011;52593;42.648;23.332;2023-04-16T05:32:37;9.85;;;3.75;;
65831;SDS011;52593;42.648;23.332;2023-04-16T05:35:04;7.95;;;3.22;;
65831;SDS011;52593;42.648;23.332;2023-04-16T05:37:30;8.43;;;3.07;;
65831;SDS011;52593;42.648;23.332;2023-04-16T05:39:55;8.60;;;3.30;;
65831;SDS011;52593;42.648;23.332;2023-04-16T05:42:20;9.88;;;2.90;;
65831;SDS011;52593;42.648;23.332;2023-04-16T05:44:46;8.87;;;2.90;;
65831;SDS011;52593;42.648;23.332;2023-04-16T05:47:11;6.17;;;2.40;;
65831;SDS011;52593;42.648;23.332;2023-04-16T05:49:37;8.73;;;2.97;;
65831;SDS011;52593;42.648;23.332;2023-04-16T05:52:02;7.70;;;2.63;;
65831;SDS011;52593;42.648;23.332;2023-04-16T05:54:28;9.77;;;2.90;;
65831;SDS011;52593;42.648;23.332;2023-04-16T05:56:54;8.88;;;2.90;;
65831;SDS011;52593;42.648;23.332;2023-04-16T05:59:19;9.30;;;2.80;;
65831;SDS011;52593;42.648;23.332;2023-04-16T06:01:44;10.37;;;2.67;;
65831;SDS011;52593;42.648;23.332;2023-04-16T06:04:10;8.67;;;3.50;;
65831;SDS011;52593;42.648;23.332;2023-04-16T06:06:35;8.30;;;3.43;;
65831;SDS011;52593;42.648;23.332;2023-04-16T06:09:01;9.27;;;3.40;;
65831;SDS011;52593;42.648;23.332;2023-04-16T06:11:28;9.05;;;3.58;;
65831;SDS011;52593;42.648;23.332;2023-04-16T06:13:54;10.50;;;3.50;;
65831;SDS011;52593;42.648;23.332;2023-04-16T06:16:20;10.87;;;3.23;;
65831;SDS011;52593;42.648;23.332;2023-04-16T06:18:45;8.57;;;3.23;;
65831;SDS011;52593;42.648;23.332;2023-04-16T06:21:11;9.20;;;3.17;;
65831;SDS011;52593;42.648;23.332;2023-04-16T06:23:36;8.87;;;3.00;;
65831;SDS011;52593;42.648;23.332;2023-04-16T06:26:02;9.90;;;3.90;;
65831;SDS011;52593;42.648;23.332;2023-04-16T06:28:27;12.02;;;3.78;;
65831;SDS011;52593;42.648;23.332;2023-04-16T06:30:52;8.70;;;3.40;;
65831;SDS011;52593;42.648;23.332;2023-04-16T06:33:18;12.07;;;3.97;;
65831;SDS011;52593;42.648;23.332;2023-04-16T06:35:43;11.87;;;4.10;;
65831;SDS011;52593;42.648;23.332;2023-04-16T06:38:09;9.50;;;3.63;;
65831;SDS011;52593;42.648;23.332;2023-04-16T06:40:34;9.55;;;3.90;;
65831;SDS011;52593;42.648;23.332;2023-04-16T06:43:01;8.67;;;3.53;;
65831;SDS011;52593;42.648;23.332;2023-04-16T06:45:27;10.93;;;4.32;;
65831;SDS011;52593;42.648;23.332;2023-04-16T06:47:52;8.63;;;3.70;;
65831;SDS011;52593;42.648;23.332;2023-04-16T06:50:17;10.07;;;3.87;;
65831;SDS011;52593;42.648;23.332;2023-04-16T06:52:43;9.30;;;3.83;;
65831;SDS011;52593;42.648;23.332;2023-04-16T06:55:09;8.23;;;3.70;;
65831;SDS011;52593;42.648;23.332;2023-04-16T06:57:35;8.82;;;3.50;;
65831;SDS011;52593;42.648;23.332;2023-04-16T07:00:01;11.23;;;3.43;;
65831;SDS011;52593;42.648;23.332;2023-04-16T07:02:27;9.27;;;3.30;;
65831;SDS011;52593;42.648;23.332;2023-04-16T07:04:52;7.57;;;3.40;;
65831;SDS011;52593;42.648;23.332;2023-04-16T07:07:18;6.70;;;3.08;;
65831;SDS011;52593;42.648;23.332;2023-04-16T07:09:43;8.70;;;3.40;;
65831;SDS011;52593;42.648;23.332;2023-04-16T07:12:08;9.97;;;3.70;;
65831;SDS011;52593;42.648;23.332;2023-04-16T07:14:35;9.30;;;3.53;;
65831;SDS011;52593;42.648;23.332;2023-04-16T07:17:00;10.97;;;3.80;;
65831;SDS011;52593;42.648;23.332;2023-04-16T07:19:26;7.83;;;3.77;;
65831;SDS011;52593;42.648;23.332;2023-04-16T07:21:54;11.48;;;3.72;;
65831;SDS011;52593;42.648;23.332;2023-04-16T07:24:20;10.27;;;3.70;;
65831;SDS011;52593;42.648;23.332;2023-04-16T07:26:45;10.13;;;3.87;;
65831;SDS011;52593;42.648;23.332;2023-04-16T07:29:10;8.07;;;3.77;;
65831;SDS011;52593;42.648;23.332;2023-04-16T07:31:36;8.43;;;3.67;;
65831;SDS011;52593;42.648;23.332;2023-04-16T07:34:02;8.88;;;3.70;;
65831;SDS011;52593;42.648;23.332;2023-04-16T07:36:27;9.47;;;3.90;;
65831;SDS011;52593;42.648;23.332;2023-04-16T07:38:53;10.50;;;3.67;;
65831;SDS011;52593;42.648;23.332;2023-04-16T07:41:18;11.05;;;3.80;;
65831;SDS011;52593;42.648;23.332;2023-04-16T07:43:44;8.10;;;3.70;;
65831;SDS011;52593;42.648;23.332;2023-04-16T07:46:09;12.83;;;4.00;;
65831;SDS011;52593;42.648;23.332;2023-04-16T07:48:34;10.30;;;3.97;;
65831;SDS011;52593;42.648;23.332;2023-04-16T07:51:00;11.17;;;3.80;;
65831;SDS011;52593;42.648;23.332;2023-04-16T07:53:25;9.33;;;4.03;;
65831;SDS011;52593;42.648;23.332;2023-04-16T07:55:51;8.40;;;3.47;;
65831;SDS011;52593;42.648;23.332;2023-04-16T07:58:16;9.00;;;3.50;;
65831;SDS011;52593;42.648;23.332;2023-04-16T08:00:42;8.77;;;3.38;;
65831;SDS011;52593;42.648;23.332;2023-04-16T08:03:07;9.33;;;3.67;;
65831;SDS011;52593;42.648;23.332;2023-04-16T08:05:32;8.67;;;3.37;;
65831;SDS011;52593;42.648;23.332;2023-04-16T08:07:58;9.17;;;3.60;;
65831;SDS011;52593;42.648;23.332;2023-04-16T08:10:23;9.17;;;3.70;;
65831;SDS011;52593;42.648;23.332;2023-04-16T08:12:48;7.60;;;3.33;;
65831;SDS011;52593;42.648;23.332;2023-04-16T08:15:14;7.73;;;3.10;;
65831;SDS011;52593;42.648;23.332;2023-04-16T08:17:40;8.33;;;3.30;;
65831;SDS011;52593;42.648;23.332;2023-04-16T08:20:05;9.37;;;2.97;;
65831;SDS011;52593;42.648;23.332;2023-04-16T08:22:31;8.55;;;3.00;;
65831;SDS011;52593;42.648;23.332;2023-04-16T08:24:57;7.97;;;2.95;;
65831;SDS011;52593;42.648;23.332;2023-04-16T08:27:22;8.13;;;3.13;;
65831;SDS011;52593;42.648;23.332;2023-04-16T08:29:48;9.77;;;3.00;;
65831;SDS011;52593;42.648;23.332;2023-04-16T08:32:13;7.72;;;3.03;;
65831;SDS011;52593;42.648;23.332;2023-04-16T08:34:38;7.33;;;2.90;;
65831;SDS011;52593;42.648;23.332;2023-04-16T08:37:04;6.77;;;2.80;;
65831;SDS011;52593;42.648;23.332;2023-04-16T08:39:29;10.90;;;3.20;;
65831;SDS011;52593;42.648;23.332;2023-04-16T08:41:55;8.67;;;2.90;;
65831;SDS011;52593;42.648;23.332;2023-04-16T08:44:25;6.97;;;2.67;;
65831;SDS011;52593;42.648;23.332;2023-04-16T08:46:55;7.70;;;2.67;;
65831;SDS011;52593;42.648;23.332;2023-04-16T08:49:22;8.60;;;2.90;;
65831;SDS011;52593;42.648;23.332;2023-04-16T08:51:50;7.53;;;2.50;;
65831;SDS011;52593;42.648;23.332;2023-04-16T08:54:22;6.05;;;2.90;;
65831;SDS011;52593;42.648;23.332;2023-04-16T08:57:08;6.33;;;2.33;;
65831;SDS011;52593;42.648;23.332;2023-04-16T08:59:35;6.40;;;2.15;;
65831;SDS011;52593;42.648;23.332;2023-04-16T09:02:02;6.97;;;2.25;;
65831;SDS011;52593;42.648;23.332;2023-04-16T09:04:30;6.70;;;2.13;;
65831;SDS011;52593;42.648;23.332;2023-04-16T09:06:57;5.90;;;2.07;;
65831;SDS011;52593;42.648;23.332;2023-04-16T09:09:22;6.65;;;2.30;;
65831;SDS011;52593;42.648;23.332;2023-04-16T09:11:50;7.65;;;2.60;;
65831;SDS011;52593;42.648;23.332;2023-04-16T09:14:17;8.23;;;2.47;;
65831;SDS011;52593;42.648;23.332;2023-04-16T09:16:44;5.43;;;2.00;;
65831;SDS011;52593;42.648;23.332;2023-04-16T09:19:11;8.60;;;2.13;;
65831;SDS011;52593;42.648;23.332;2023-04-16T09:21:37;6.43;;;2.10;;
65831;SDS011;52593;42.648;23.332;2023-04-16T09:24:05;9.00;;;2.05;;
65831;SDS011;52593;42.648;23.332;2023-04-16T09:26:31;7.20;;;2.33;;
65831;SDS011;52593;42.648;23.332;2023-04-16T09:28:58;6.27;;;1.90;;
65831;SDS011;52593;42.648;23.332;2023-04-16T09:31:23;6.50;;;2.17;;
65831;SDS011;52593;42.648;23.332;2023-04-16T09:36:26;6.13;;;1.88;;
65831;SDS011;52593;42.648;23.332;2023-04-16T09:38:52;10.03;;;2.20;;
65831;SDS011;52593;42.648;23.332;2023-04-16T09:41:18;8.27;;;2.45;;
65831;SDS011;52593;42.648;23.332;2023-04-16T09:44:00;6.03;;;2.45;;
65831;SDS011;52593;42.648;23.332;2023-04-16T09:48:54;4.90;;;1.70;;
65831;SDS011;52593;42.648;23.332;2023-04-16T09:51:20;6.88;;;2.00;;
65831;SDS011;52593;42.648;23.332;2023-04-16T09:53:45;6.73;;;1.90;;
65831;SDS011;52593;42.648;23.332;2023-04-16T09:56:11;5.87;;;1.90;;
65831;SDS011;52593;42.648;23.332;2023-04-16T09:58:37;6.70;;;1.97;;
65831;SDS011;52593;42.648;23.332;2023-04-16T10:03:28;8.20;;;2.70;;
65831;SDS011;52593;42.648;23.332;2023-04-16T10:05:58;6.20;;;2.05;;
65831;SDS011;52593;42.648;23.332;2023-04-16T10:08:38;4.85;;;1.80;;
65831;SDS011;52593;42.648;23.332;2023-04-16T10:11:07;7.93;;;1.77;;
65831;SDS011;52593;42.648;23.332;2023-04-16T10:13:33;6.10;;;2.00;;
65831;SDS011;52593;42.648;23.332;2023-04-16T10:15:58;8.67;;;1.90;;
65831;SDS011;52593;42.648;23.332;2023-04-16T10:18:24;7.53;;;1.90;;
65831;SDS011;52593;42.648;23.332;2023-04-16T10:20:50;4.93;;;1.60;;
65831;SDS011;52593;42.648;23.332;2023-04-16T10:23:15;5.68;;;1.75;;
65831;SDS011;52593;42.648;23.332;2023-04-16T10:25:41;5.37;;;1.60;;
65831;SDS011;52593;42.648;23.332;2023-04-16T10:28:08;7.07;;;1.80;;
65831;SDS011;52593;42.648;23.332;2023-04-16T10:30:34;5.97;;;2.10;;
65831;SDS011;52593;42.648;23.332;2023-04-16T10:33:00;5.03;;;1.70;;
65831;SDS011;52593;42.648;23.332;2023-04-16T10:35:29;6.85;;;1.83;;
65831;SDS011;52593;42.648;23.332;2023-04-16T10:38:07;7.03;;;2.08;;
65831;SDS011;52593;42.648;23.332;2023-04-16T10:40:47;7.07;;;2.22;;
65831;SDS011;52593;42.648;23.332;2023-04-16T10:43:16;6.20;;;2.00;;
65831;SDS011;52593;42.648;23.332;2023-04-16T10:45:42;9.88;;;2.28;;
65831;SDS011;52593;42.648;23.332;2023-04-16T10:48:07;8.27;;;2.10;;
65831;SDS011;52593;42.648;23.332;2023-04-16T10:50:34;9.02;;;2.20;;
65831;SDS011;52593;42.648;23.332;2023-04-16T10:53:20;5.80;;;1.70;;
65831;SDS011;52593;42.648;23.332;2023-04-16T10:58:26;6.57;;;2.00;;
65831;SDS011;52593;42.648;23.332;2023-04-16T11:00:57;5.53;;;1.80;;
65831;SDS011;52593;42.648;23.332;2023-04-16T11:03:23;6.05;;;1.90;;
65831;SDS011;52593;42.648;23.332;2023-04-16T11:05:49;6.10;;;1.80;;
65831;SDS011;52593;42.648;23.332;2023-04-16T11:08:14;6.43;;;1.83;;
65831;SDS011;52593;42.648;23.332;2023-04-16T11:10:40;6.45;;;1.92;;
65831;SDS011;52593;42.648;23.332;2023-04-16T11:13:06;7.85;;;1.85;;
65831;SDS011;52593;42.648;23.332;2023-04-16T11:15:33;5.67;;;1.83;;
65831;SDS011;52593;42.648;23.332;2023-04-16T11:17:58;6.43;;;2.17;;
65831;SDS011;52593;42.648;23.332;2023-04-16T11:20:25;5.37;;;2.00;;
65831;SDS011;52593;42.648;23.332;2023-04-16T11:22:55;5.50;;;1.87;;
65831;SDS011;52593;42.648;23.332;2023-04-16T11:25:28;6.47;;;2.03;;
65831;SDS011;52593;42.648;23.332;2023-04-16T11:27:55;6.78;;;2.20;;
65831;SDS011;52593;42.648;23.332;2023-04-16T11:30:29;7.88;;;2.08;;
65831;SDS011;52593;42.648;23.332;2023-04-16T11:32:57;6.75;;;2.05;;
65831;SDS011;52593;42.648;23.332;2023-04-16T11:35:22;7.43;;;2.60;;
65831;SDS011;52593;42.648;23.332;2023-04-16T11:37:48;6.70;;;1.87;;
65831;SDS011;52593;42.648;23.332;2023-04-16T11:40:13;6.25;;;2.10;;
65831;SDS011;52593;42.648;23.332;2023-04-16T11:42:39;6.00;;;2.03;;
65831;SDS011;52593;42.648;23.332;2023-04-16T11:45:09;6.95;;;2.00;;
65831;SDS011;52593;42.648;23.332;2023-04-16T11:47:48;6.15;;;2.03;;
65831;SDS011;52593;42.648;23.332;2023-04-16T11:50:19;7.25;;;1.80;;
65831;SDS011;52593;42.648;23.332;2023-04-16T11:52:50;5.40;;;1.90;;
65831;SDS011;52593;42.648;23.332;2023-04-16T11:55:18;5.78;;;1.85;;
65831;SDS011;52593;42.648;23.332;2023-04-16T11:57:44;7.35;;;1.95;;
65831;SDS011;52593;42.648;23.332;2023-04-16T12:00:10;8.15;;;2.00;;
65831;SDS011;52593;42.648;23.332;2023-04-16T12:02:42;6.83;;;2.00;;
65831;SDS011;52593;42.648;23.332;2023-04-16T12:08:11;7.95;;;2.42;;
65831;SDS011;52593;42.648;23.332;2023-04-16T12:10:37;8.53;;;1.97;;
65831;SDS011;52593;42.648;23.332;2023-04-16T12:13:17;5.10;;;1.85;;
65831;SDS011;52593;42.648;23.332;2023-04-16T12:15:46;6.53;;;2.13;;
65831;SDS011;52593;42.648;23.332;2023-04-16T12:18:15;5.50;;;1.90;;
65831;SDS011;52593;42.648;23.332;2023-04-16T12:20:42;6.70;;;2.05;;
65831;SDS011;52593;42.648;23.332;2023-04-16T12:23:08;6.30;;;2.60;;
65831;SDS011;52593;42.648;23.332;2023-04-16T12:25:35;5.28;;;1.80;;
65831;SDS011;52593;42.648;23.332;2023-04-16T12:28:01;6.88;;;2.00;;
65831;SDS011;52593;42.648;23.332;2023-04-16T12:30:27;7.83;;;2.03;;
65831;SDS011;52593;42.648;23.332;2023-04-16T12:32:53;9.65;;;2.10;;
65831;SDS011;52593;42.648;23.332;2023-04-16T12:35:38;5.10;;;1.93;;
65831;SDS011;52593;42.648;23.332;2023-04-16T12:38:05;5.60;;;2.00;;
65831;SDS011;52593;42.648;23.332;2023-04-16T12:40:32;7.15;;;2.10;;
65831;SDS011;52593;42.648;23.332;2023-04-16T12:42:57;5.90;;;1.95;;
65831;SDS011;52593;42.648;23.332;2023-04-16T12:45:23;6.67;;;1.70;;
65831;SDS011;52593;42.648;23.332;2023-04-16T12:47:49;6.55;;;1.73;;
65831;SDS011;52593;42.648;23.332;2023-04-16T12:50:14;4.73;;;1.90;;
65831;SDS011;52593;42.648;23.332;2023-04-16T12:52:40;5.97;;;1.90;;
65831;SDS011;52593;42.648;23.332;2023-04-16T12:55:05;6.30;;;1.80;;
65831;SDS011;52593;42.648;23.332;2023-04-16T12:57:31;6.23;;;1.77;;
65831;SDS011;52593;42.648;23.332;2023-04-16T12:59:56;7.07;;;1.97;;
65831;SDS011;52593;42.648;23.332;2023-04-16T13:02:23;6.35;;;1.90;;
65831;SDS011;52593;42.648;23.332;2023-04-16T13:04:49;5.47;;;1.77;;
65831;SDS011;52593;42.648;23.332;2023-04-16T13:07:15;6.65;;;2.05;;
65831;SDS011;52593;42.648;23.332;2023-04-16T13:09:42;8.33;;;2.10;;
65831;SDS011;52593;42.648;23.332;2023-04-16T13:12:07;5.78;;;1.88;;
65831;SDS011;52593;42.648;23.332;2023-04-16T13:14:33;8.67;;;1.80;;
65831;SDS011;52593;42.648;23.332;2023-04-16T13:16:58;7.00;;;1.90;;
65831;SDS011;52593;42.648;23.332;2023-04-16T13:19:24;6.93;;;2.40;;
65831;SDS011;52593;42.648;23.332;2023-04-16T13:21:49;9.13;;;2.00;;
65831;SDS011;52593;42.648;23.332;2023-04-16T13:24:15;6.78;;;1.60;;
65831;SDS011;52593;42.648;23.332;2023-04-16T13:26:40;7.63;;;1.97;;
65831;SDS011;52593;42.648;23.332;2023-04-16T13:29:07;9.77;;;2.05;;
65831;SDS011;52593;42.648;23.332;2023-04-16T13:31:33;5.60;;;1.70;;
65831;SDS011;52593;42.648;23.332;2023-04-16T13:33:58;5.90;;;1.52;;
65831;SDS011;52593;42.648;23.332;2023-04-16T13:36:24;4.27;;;1.40;;
65831;SDS011;52593;42.648;23.332;2023-04-16T13:38:49;5.45;;;1.58;;
65831;SDS011;52593;42.648;23.332;2023-04-16T13:41:15;5.50;;;1.40;;
65831;SDS011;52593;42.648;23.332;2023-04-16T13:43:40;5.03;;;1.40;;
65831;SDS011;52593;42.648;23.332;2023-04-16T13:46:06;6.57;;;1.90;;
65831;SDS011;52593;42.648;23.332;2023-04-16T13:48:31;8.18;;;2.00;;
65831;SDS011;52593;42.648;23.332;2023-04-16T13:50:57;5.47;;;2.10;;
65831;SDS011;52593;42.648;23.332;2023-04-16T13:53:22;6.37;;;1.47;;
65831;SDS011;52593;42.648;23.332;2023-04-16T13:55:47;6.13;;;1.50;;
65831;SDS011;52593;42.648;23.332;2023-04-16T13:58:13;5.78;;;1.63;;
65831;SDS011;52593;42.648;23.332;2023-04-16T14:00:40;4.35;;;1.25;;
65831;SDS011;52593;42.648;23.332;2023-04-16T14:03:06;4.05;;;1.30;;
65831;SDS011;52593;42.648;23.332;2023-04-16T14:05:31;5.87;;;1.70;;
65831;SDS011;52593;42.648;23.332;2023-04-16T14:07:57;6.90;;;1.70;;
65831;SDS011;52593;42.648;23.332;2023-04-16T14:10:22;6.77;;;1.60;;
65831;SDS011;52593;42.648;23.332;2023-04-16T14:12:47;8.93;;;2.83;;
65831;SDS011;52593;42.648;23.332;2023-04-16T14:15:13;5.57;;;1.73;;
65831;SDS011;52593;42.648;23.332;2023-04-16T14:17:39;5.50;;;2.00;;
65831;SDS011;52593;42.648;23.332;2023-04-16T14:20:11;5.13;;;1.60;;
65831;SDS011;52593;42.648;23.332;2023-04-16T14:22:37;6.10;;;1.90;;
65831;SDS011;52593;42.648;23.332;2023-04-16T14:25:03;4.77;;;1.70;;
65831;SDS011;52593;42.648;23.332;2023-04-16T14:27:30;6.65;;;2.20;;
65831;SDS011;52593;42.648;23.332;2023-04-16T14:29:55;7.80;;;1.70;;
65831;SDS011;52593;42.648;23.332;2023-04-16T14:32:20;5.07;;;1.50;;
65831;SDS011;52593;42.648;23.332;2023-04-16T14:34:46;5.33;;;1.73;;
65831;SDS011;52593;42.648;23.332;2023-04-16T14:37:11;4.67;;;1.67;;
65831;SDS011;52593;42.648;23.332;2023-04-16T14:39:37;4.93;;;1.55;;
65831;SDS011;52593;42.648;23.332;2023-04-16T14:42:03;7.13;;;1.90;;